Time;durP1;ratioP1;P1;durP2;ratioP2;P2;SDS_P1;SDS_P2;PMS_P1;PMS_P2;Temp;Humidity;BMP_temperature;BMP_pressure;BME280_temperature;BME280_humidity;BME280_pressure;Samples;Min_cycle;Max_cycle;Signal;HPM_P1;HPM_P2
2022/03/07 00:00:08;;;;;;;5.22;3.03;;;2.90;67.10;;;;;;5096517;28;20024;-37
2022/03/07 00:02:33;;;;;;;5.22;2.38;;;2.90;67.10;;;;;;5096165;28;20041;-36
2022/03/07 00:04:59;;;;;;;6.25;2.60;;;2.90;67.10;;;;;;5096176;28;20021;-39
2022/03/07 00:07:25;;;;;;;5.07;2.75;;;2.90;67.10;;;;;;5096170;28;20021;-36
2022/03/07 00:09:50;;;;;;;4.35;2.75;;;2.90;67.10;;;;;;5096125;28;20016;-38
2022/03/07 00:12:16;;;;;;;4.72;3.20;;;2.90;67.20;;;;;;5096072;28;20384;-38
2022/03/07 00:14:41;;;;;;;6.88;3.50;;;2.90;67.10;;;;;;5095962;28;20495;-38
2022/03/07 00:17:07;;;;;;;4.65;2.75;;;2.90;67.20;;;;;;5096280;28;20133;-38
2022/03/07 00:19:32;;;;;;;3.75;3.00;;;2.80;67.10;;;;;;5095950;28;20024;-37
2022/03/07 00:21:58;;;;;;;3.92;2.83;;;2.80;67.20;;;;;;5095817;28;20077;-38
2022/03/07 00:24:23;;;;;;;4.97;2.75;;;2.80;67.20;;;;;;5096094;28;20365;-38
2022/03/07 00:26:49;;;;;;;4.25;2.85;;;2.80;67.30;;;;;;5095807;28;20047;-37
2022/03/07 00:29:15;;;;;;;3.97;2.50;;;2.80;67.40;;;;;;5095767;28;20020;-38
2022/03/07 00:31:41;;;;;;;3.85;2.63;;;2.80;67.40;;;;;;5095640;28;20476;-37
2022/03/07 00:34:06;;;;;;;4.47;2.70;;;2.80;67.40;;;;;;5077342;28;20024;-38
2022/03/07 00:36:32;;;;;;;4.93;3.10;;;2.80;67.40;;;;;;5095675;28;20039;-38
2022/03/07 00:38:57;;;;;;;4.40;3.10;;;2.70;67.40;;;;;;5095703;28;20024;-38
2022/03/07 00:41:23;;;;;;;5.55;2.90;;;2.80;67.40;;;;;;5095453;28;20028;-38
2022/03/07 00:43:48;;;;;;;6.95;3.13;;;2.70;67.40;;;;;;5095492;28;20021;-38
2022/03/07 00:46:15;;;;;;;3.97;2.83;;;2.70;67.50;;;;;;5095607;28;20016;-38
2022/03/07 00:48:40;;;;;;;4.15;2.72;;;2.70;67.60;;;;;;5094186;28;20016;-37
2022/03/07 00:51:06;;;;;;;4.30;2.67;;;2.60;67.60;;;;;;5095460;28;20465;-37
2022/03/07 00:53:31;;;;;;;6.55;2.95;;;2.70;67.70;;;;;;5095464;28;20020;-39
2022/03/07 00:55:57;;;;;;;4.38;2.92;;;2.60;67.70;;;;;;5095357;28;20408;-39
2022/03/07 00:58:24;;;;;;;3.33;2.35;;;2.60;67.80;;;;;;5077095;28;20150;-37
2022/03/07 01:00:50;;;;;;;6.18;3.30;;;2.60;67.80;;;;;;5095157;28;20027;-37
2022/03/07 01:03:17;;;;;;;4.70;3.00;;;2.60;67.80;;;;;;5076965;28;20020;-36
2022/03/07 01:05:44;;;;;;;4.30;3.00;;;2.60;67.80;;;;;;5094897;28;20024;-36
2022/03/07 01:08:10;;;;;;;4.88;2.80;;;2.60;67.80;;;;;;5076801;28;20093;-36
2022/03/07 01:10:36;;;;;;;4.97;3.10;;;2.60;67.80;;;;;;5094858;28;20016;-36
2022/03/07 01:13:02;;;;;;;5.03;2.95;;;2.60;67.80;;;;;;5095024;28;20530;-38
2022/03/07 01:15:28;;;;;;;3.78;2.60;;;2.60;67.80;;;;;;5094659;28;20028;-36
2022/03/07 01:17:54;;;;;;;3.85;3.08;;;2.60;67.80;;;;;;5094646;28;20089;-38
2022/03/07 01:20:20;;;;;;;5.50;3.15;;;2.60;67.90;;;;;;5094946;28;20028;-39
2022/03/07 01:22:46;;;;;;;4.47;3.10;;;2.60;67.90;;;;;;5076215;28;20107;-37
2022/03/07 01:25:12;;;;;;;5.07;3.42;;;2.60;68.00;;;;;;5094519;28;20051;-39
2022/03/07 01:27:37;;;;;;;5.18;2.97;;;2.60;68.00;;;;;;5094499;28;20024;-37
2022/03/07 01:30:04;;;;;;;5.82;3.45;;;2.50;68.00;;;;;;5094719;28;20130;-39
2022/03/07 01:32:30;;;;;;;6.38;3.42;;;2.50;68.00;;;;;;5094570;28;20031;-39
2022/03/07 01:34:55;;;;;;;3.88;3.15;;;2.50;68.10;;;;;;5094288;28;20020;-37
2022/03/07 01:37:21;;;;;;;7.35;3.53;;;2.50;68.20;;;;;;5094300;28;20473;-37
2022/03/07 01:39:47;;;;;;;4.60;3.25;;;2.50;68.20;;;;;;5094274;28;20020;-38
2022/03/07 01:42:12;;;;;;;6.00;3.55;;;2.50;68.20;;;;;;5076187;28;20031;-37
2022/03/07 01:44:38;;;;;;;5.28;3.40;;;2.50;68.20;;;;;;5094169;28;20103;-37
2022/03/07 01:47:05;;;;;;;4.50;3.05;;;2.50;68.20;;;;;;5094271;28;20024;-38
2022/03/07 01:49:31;;;;;;;4.20;3.17;;;2.50;68.20;;;;;;5075817;28;20107;-38
2022/03/07 01:51:58;;;;;;;6.90;3.58;;;2.50;68.20;;;;;;5094052;28;20130;-42
2022/03/07 01:54:24;;;;;;;4.88;3.40;;;2.50;68.80;;;;;;5093817;28;20237;-38
2022/03/07 01:56:51;;;;;;;5.35;3.90;;;2.50;68.20;;;;;;5093974;28;20474;-38
2022/03/07 01:59:20;;;;;;;4.45;3.40;;;2.50;68.20;;;;;;5093750;28;20024;-38
2022/03/07 02:01:46;;;;;;;5.80;3.75;;;2.50;68.30;;;;;;5093973;28;20034;-38
2022/03/07 02:04:13;;;;;;;3.72;3.33;;;2.50;68.30;;;;;;5094245;28;20126;-36
2022/03/07 02:06:40;;;;;;;4.63;3.28;;;2.40;68.30;;;;;;5075741;28;20070;-37
2022/03/07 02:09:07;;;;;;;6.28;3.47;;;2.40;68.30;;;;;;5094339;28;20070;-38
2022/03/07 02:11:33;;;;;;;4.57;3.38;;;2.40;68.30;;;;;;5094203;28;20392;-38
2022/03/07 02:14:15;;;;;;;5.55;3.60;;;2.40;68.30;;;;;;5093925;28;20082;-39
2022/03/07 02:16:41;;;;;;;7.05;3.75;;;2.40;68.40;;;;;;5093941;28;20420;-36
2022/03/07 02:19:07;;;;;;;5.25;3.72;;;2.40;69.10;;;;;;5093683;28;20024;-38
2022/03/07 02:21:34;;;;;;;6.47;3.72;;;2.30;68.40;;;;;;5093749;28;20529;-37
2022/03/07 02:24:00;;;;;;;6.85;3.85;;;2.30;68.40;;;;;;5093554;28;20069;-37
2022/03/07 02:26:26;;;;;;;4.97;3.58;;;2.30;68.50;;;;;;5093418;28;20027;-37
2022/03/07 02:28:51;;;;;;;6.88;3.70;;;2.30;68.50;;;;;;5093410;28;20024;-37
2022/03/07 02:31:19;;;;;;;4.72;3.58;;;2.30;68.60;;;;;;5093294;28;20096;-38
2022/03/07 02:33:46;;;;;;;5.97;3.78;;;2.30;68.60;;;;;;5093237;28;20043;-37
2022/03/07 02:36:11;;;;;;;7.97;3.78;;;2.20;68.60;;;;;;5093253;28;20487;-37
2022/03/07 02:38:37;;;;;;;5.97;3.70;;;2.20;68.60;;;;;;5093083;28;20024;-36
2022/03/07 02:41:03;;;;;;;6.60;3.60;;;2.20;68.70;;;;;;5093382;28;20442;-37
2022/03/07 02:43:28;;;;;;;5.63;3.75;;;2.20;68.80;;;;;;5092985;28;20039;-37
2022/03/07 02:45:55;;;;;;;5.97;4.00;;;2.20;68.80;;;;;;5074845;28;20028;-37
2022/03/07 02:48:21;;;;;;;5.63;4.03;;;2.20;68.90;;;;;;5093396;28;20388;-36
2022/03/07 02:50:47;;;;;;;8.15;3.85;;;2.10;68.90;;;;;;5093373;28;20020;-37
2022/03/07 02:53:13;;;;;;;5.95;3.90;;;2.10;68.90;;;;;;5093275;28;20027;-36
2022/03/07 02:55:39;;;;;;;7.10;3.95;;;2.10;68.90;;;;;;5092900;28;20411;-42
2022/03/07 02:58:04;;;;;;;4.63;3.95;;;2.10;68.90;;;;;;5093144;28;20077;-38
2022/03/07 03:00:31;;;;;;;6.68;3.92;;;2.10;69.00;;;;;;5093059;28;20024;-38
2022/03/07 03:02:57;;;;;;;6.15;3.85;;;2.10;69.10;;;;;;5092793;28;20032;-38
2022/03/07 03:05:23;;;;;;;5.03;3.85;;;2.10;69.10;;;;;;5092864;28;20031;-36
2022/03/07 03:07:51;;;;;;;5.60;3.20;;;2.10;69.30;;;;;;5093262;28;20387;-39
2022/03/07 03:10:17;;;;;;;6.20;3.95;;;2.00;69.20;;;;;;5092843;28;20028;-39
2022/03/07 03:12:44;;;;;;;6.13;4.10;;;2.10;69.30;;;;;;5092436;28;20028;-38
2022/03/07 03:15:10;;;;;;;7.20;4.13;;;2.00;69.30;;;;;;5092889;28;20442;-37
2022/03/07 03:17:40;;;;;;;8.85;3.88;;;2.00;69.30;;;;;;5092862;28;20034;-37
2022/03/07 03:20:06;;;;;;;8.52;4.32;;;2.00;69.30;;;;;;5092814;28;20069;-37
2022/03/07 03:22:32;;;;;;;6.78;4.03;;;2.00;69.40;;;;;;5092833;28;20032;-37
2022/03/07 03:24:58;;;;;;;6.07;3.78;;;2.00;69.50;;;;;;5092976;28;20028;-38
2022/03/07 03:27:23;;;;;;;7.90;4.55;;;2.00;69.50;;;;;;5092633;28;20490;-37
2022/03/07 03:29:49;;;;;;;6.88;4.40;;;1.90;69.50;;;;;;5092659;28;20024;-37
2022/03/07 03:32:15;;;;;;;6.78;4.45;;;1.90;69.50;;;;;;5092558;28;20369;-38
2022/03/07 03:34:41;;;;;;;5.68;4.20;;;1.90;69.60;;;;;;5074563;28;20028;-37
2022/03/07 03:37:07;;;;;;;8.80;4.93;;;1.90;69.70;;;;;;5092506;28;20028;-37
2022/03/07 03:39:33;;;;;;;7.18;4.53;;;1.90;69.70;;;;;;5092891;28;20080;-39
2022/03/07 03:41:58;;;;;;;7.82;4.57;;;1.90;69.70;;;;;;5074213;28;20376;-37
2022/03/07 03:44:24;;;;;;;8.50;5.07;;;1.80;69.80;;;;;;5092822;28;20024;-38
2022/03/07 03:46:50;;;;;;;8.40;4.80;;;1.80;69.80;;;;;;5092554;28;20056;-38
2022/03/07 03:49:15;;;;;;;7.80;4.97;;;1.80;69.90;;;;;;5092609;28;20362;-38
2022/03/07 03:51:41;;;;;;;8.65;5.32;;;1.80;69.90;;;;;;5092422;28;20173;-37
2022/03/07 03:54:07;;;;;;;9.07;5.00;;;1.80;70.00;;;;;;5092229;28;21106;-37
2022/03/07 03:56:32;;;;;;;8.18;5.32;;;1.70;70.00;;;;;;5092426;28;20024;-37
2022/03/07 03:58:58;;;;;;;8.70;5.10;;;1.70;70.10;;;;;;5092225;28;20039;-37
2022/03/07 04:01:24;;;;;;;9.18;5.07;;;1.70;70.10;;;;;;5092139;28;20483;-37
2022/03/07 04:03:49;;;;;;;7.35;4.80;;;1.70;70.20;;;;;;5092139;28;20035;-37
2022/03/07 04:06:15;;;;;;;7.32;5.25;;;1.70;70.30;;;;;;5092231;28;20107;-37
2022/03/07 04:08:41;;;;;;;7.63;4.60;;;1.70;70.30;;;;;;5092197;28;20369;-36
2022/03/07 04:11:07;;;;;;;8.48;5.40;;;1.60;70.30;;;;;;5092179;28;20387;-39
2022/03/07 04:13:32;;;;;;;9.45;5.18;;;1.70;70.30;;;;;;5092181;28;20503;-37
2022/03/07 04:15:58;;;;;;;9.82;5.20;;;1.70;70.30;;;;;;5092209;28;20040;-36
2022/03/07 04:18:23;;;;;;;8.52;5.18;;;1.70;70.30;;;;;;5073886;28;20028;-37
2022/03/07 04:20:49;;;;;;;7.93;4.80;;;1.70;70.30;;;;;;5092002;28;20055;-38
2022/03/07 04:23:20;;;;;;;10.20;5.70;;;1.60;70.30;;;;;;5094395;28;20035;-37
2022/03/07 04:25:49;;;;;;;8.20;4.97;;;1.60;70.30;;;;;;5095650;28;20024;-36
2022/03/07 04:28:14;;;;;;;7.40;5.20;;;1.60;70.40;;;;;;5095674;28;20019;-36
2022/03/07 04:30:40;;;;;;;9.10;5.30;;;1.70;70.50;;;;;;5095840;28;20016;-37
2022/03/07 04:33:06;;;;;;;7.70;5.40;;;1.70;70.50;;;;;;5095750;28;20073;-37
2022/03/07 04:35:32;;;;;;;6.50;4.78;;;1.70;70.50;;;;;;5095742;28;20023;-37
2022/03/07 04:37:58;;;;;;;11.60;5.63;;;1.70;70.50;;;;;;5095577;28;20107;-42
2022/03/07 04:40:24;;;;;;;11.10;5.18;;;1.70;70.50;;;;;;5095491;28;20380;-37
2022/03/07 04:42:49;;;;;;;7.55;5.35;;;1.60;70.50;;;;;;5095232;28;20024;-37
2022/03/07 04:45:15;;;;;;;7.30;4.95;;;1.60;70.50;;;;;;5095421;28;20452;-37
2022/03/07 04:47:42;;;;;;;8.05;5.30;;;1.60;70.50;;;;;;5095186;28;20016;-37
2022/03/07 04:50:08;;;;;;;9.55;5.30;;;1.60;70.70;;;;;;5077045;28;20020;-37
2022/03/07 04:52:34;;;;;;;8.50;5.32;;;1.60;70.70;;;;;;5095445;28;20102;-37
2022/03/07 04:55:00;;;;;;;9.15;5.70;;;1.50;70.70;;;;;;5094936;28;20059;-38
2022/03/07 04:57:25;;;;;;;7.75;5.40;;;1.50;70.80;;;;;;5095133;28;20107;-37
2022/03/07 04:59:51;;;;;;;7.63;5.20;;;1.50;70.90;;;;;;5076820;28;20388;-38
2022/03/07 05:02:17;;;;;;;7.32;5.30;;;1.50;70.90;;;;;;5094662;28;20096;-36
2022/03/07 05:04:42;;;;;;;7.63;4.93;;;1.50;70.90;;;;;;5094781;28;20020;-35
2022/03/07 05:07:09;;;;;;;10.15;5.13;;;1.50;70.90;;;;;;5094988;28;20099;-37
2022/03/07 05:09:34;;;;;;;7.40;4.70;;;1.50;70.90;;;;;;5094892;28;20024;-37
2022/03/07 05:12:00;;;;;;;8.48;5.05;;;1.50;71.00;;;;;;5095159;28;20027;-37
2022/03/07 05:14:26;;;;;;;8.10;5.32;;;1.50;71.00;;;;;;5095218;28;20047;-37
2022/03/07 05:16:52;;;;;;;6.20;4.88;;;1.50;71.10;;;;;;5094789;28;20020;-37
2022/03/07 05:19:18;;;;;;;8.48;5.75;;;1.50;71.10;;;;;;5094867;28;20016;-37
2022/03/07 05:21:43;;;;;;;9.52;5.35;;;1.50;71.10;;;;;;5094689;28;20387;-37
2022/03/07 05:24:09;;;;;;;6.20;4.80;;;1.40;71.10;;;;;;5094667;28;20032;-38
2022/03/07 05:26:36;;;;;;;6.70;4.97;;;1.50;71.10;;;;;;5094751;28;20012;-37
2022/03/07 05:29:03;;;;;;;7.53;5.03;;;1.40;71.10;;;;;;5076260;28;20434;-37
2022/03/07 05:34:50;;;;;;;7.82;5.85;;;1.40;71.20;;;;;;5093853;28;20165;-36
2022/03/07 05:37:16;;;;;;;8.60;5.30;;;1.40;71.20;;;;;;5094410;28;20448;-38
2022/03/07 05:39:41;;;;;;;7.40;5.55;;;1.40;71.30;;;;;;5094391;28;20016;-37
2022/03/07 05:42:07;;;;;;;8.40;5.60;;;1.30;71.30;;;;;;5094600;28;20088;-38
2022/03/07 05:44:33;;;;;;;7.50;4.93;;;1.40;71.40;;;;;;5094734;28;20411;-36
2022/03/07 05:46:59;;;;;;;9.70;6.50;;;1.30;71.40;;;;;;5094265;28;20024;-38
2022/03/07 05:49:25;;;;;;;11.23;6.32;;;1.30;71.50;;;;;;5094391;28;20062;-37
2022/03/07 05:51:51;;;;;;;8.20;5.47;;;1.30;71.50;;;;;;5094295;28;20031;-36
2022/03/07 05:54:16;;;;;;;8.20;5.07;;;1.30;71.60;;;;;;5094055;28;20044;-36
2022/03/07 05:56:42;;;;;;;9.35;5.13;;;1.30;71.60;;;;;;5094049;28;20078;-38
2022/03/07 05:59:08;;;;;;;7.15;5.18;;;1.30;71.60;;;;;;5093925;28;20035;-37
2022/03/07 06:01:33;;;;;;;7.97;5.85;;;1.30;71.70;;;;;;5093869;28;20024;-36
2022/03/07 06:03:59;;;;;;;8.52;5.57;;;1.30;71.70;;;;;;5094138;28;20020;-36
2022/03/07 06:06:25;;;;;;;11.02;6.30;;;1.30;71.70;;;;;;5094062;28;20087;-38
2022/03/07 06:08:51;;;;;;;9.40;5.95;;;1.30;71.80;;;;;;5093799;28;20053;-37
2022/03/07 06:11:16;;;;;;;8.20;5.90;;;1.30;71.80;;;;;;5094023;28;20027;-37
2022/03/07 06:13:42;;;;;;;10.02;6.10;;;1.30;71.80;;;;;;5093621;28;20024;-38
2022/03/07 06:16:08;;;;;;;9.20;5.80;;;1.30;71.80;;;;;;5093723;28;20479;-36
2022/03/07 06:18:34;;;;;;;9.38;5.97;;;1.30;71.80;;;;;;5094001;28;20047;-38
2022/03/07 06:20:59;;;;;;;8.02;5.60;;;1.30;71.80;;;;;;5075256;28;20023;-36
2022/03/07 06:23:25;;;;;;;6.80;5.15;;;1.30;71.80;;;;;;5093376;28;20024;-36
2022/03/07 06:25:51;;;;;;;9.25;5.63;;;1.30;71.70;;;;;;5093403;28;20024;-36
2022/03/07 06:28:16;;;;;;;8.15;6.03;;;1.40;71.70;;;;;;5093287;28;20102;-36
2022/03/07 06:30:46;;;;;;;8.32;5.40;;;1.40;71.80;;;;;;5093438;28;20021;-38
2022/03/07 06:33:13;;;;;;;9.35;5.82;;;1.40;71.70;;;;;;5093538;28;20020;-36
2022/03/07 06:35:38;;;;;;;7.47;5.20;;;1.40;71.70;;;;;;5093220;28;20028;-38
2022/03/07 06:38:04;;;;;;;6.95;5.15;;;1.40;71.60;;;;;;5093243;28;20027;-37
2022/03/07 06:40:31;;;;;;;8.48;5.50;;;1.50;71.70;;;;;;5093186;28;20133;-38
2022/03/07 06:42:57;;;;;;;11.52;5.75;;;1.50;71.60;;;;;;5093249;28;20341;-36
2022/03/07 06:45:23;;;;;;;7.13;5.25;;;1.50;71.50;;;;;;5058041;28;20046;-36
2022/03/07 06:47:49;;;;;;;7.43;5.22;;;1.60;71.50;;;;;;5093164;28;20149;-36
2022/03/07 06:50:15;;;;;;;8.05;5.70;;;1.60;71.50;;;;;;5093164;28;20020;-37
2022/03/07 06:52:41;;;;;;;9.90;5.60;;;1.60;71.50;;;;;;5093007;28;20546;-38
2022/03/07 06:55:07;;;;;;;9.35;5.47;;;1.60;71.50;;;;;;5092863;28;20075;-37
2022/03/07 06:57:33;;;;;;;6.90;5.10;;;1.60;71.40;;;;;;5093095;28;20031;-38
2022/03/07 06:59:58;;;;;;;7.00;4.43;;;1.60;71.40;;;;;;5092890;28;20032;-38
2022/03/07 07:02:24;;;;;;;7.55;5.57;;;1.60;71.40;;;;;;5092775;28;20039;-37
2022/03/07 07:04:49;;;;;;;8.68;5.05;;;1.70;71.30;;;;;;5092854;28;20031;-37
2022/03/07 07:07:16;;;;;;;6.72;5.30;;;1.70;71.30;;;;;;5074778;28;20070;-37
2022/03/07 07:09:42;;;;;;;7.50;4.85;;;1.80;71.30;;;;;;5074534;28;20012;-37
2022/03/07 07:12:08;;;;;;;7.70;5.47;;;1.80;71.20;;;;;;5092767;28;20016;-37
2022/03/07 07:14:34;;;;;;;7.43;5.75;;;1.80;71.20;;;;;;5093085;28;20538;-38
2022/03/07 07:17:00;;;;;;;9.68;6.53;;;1.80;71.20;;;;;;5074531;28;20035;-37
2022/03/07 07:19:26;;;;;;;8.02;5.20;;;1.80;71.20;;;;;;5092643;28;20103;-37
2022/03/07 07:21:52;;;;;;;9.07;5.72;;;1.90;71.20;;;;;;5092663;28;20488;-37
2022/03/07 07:24:17;;;;;;;8.45;5.55;;;1.90;71.20;;;;;;5092802;28;20433;-37
2022/03/07 07:26:43;;;;;;;7.60;5.57;;;1.90;71.10;;;;;;5092883;28;20476;-38
2022/03/07 07:29:08;;;;;;;7.18;4.78;;;2.00;71.20;;;;;;5074633;28;20476;-36
2022/03/07 07:31:34;;;;;;;9.85;5.30;;;2.00;71.10;;;;;;5074624;28;20035;-36
2022/03/07 07:33:59;;;;;;;8.15;5.60;;;2.10;71.10;;;;;;5092790;28;20478;-36
2022/03/07 07:36:25;;;;;;;7.10;5.05;;;2.20;71.00;;;;;;5092632;28;20013;-36
2022/03/07 07:38:51;;;;;;;7.15;5.28;;;2.20;70.90;;;;;;5092450;28;20030;-36
2022/03/07 07:41:16;;;;;;;8.25;5.90;;;2.30;70.90;;;;;;5092961;28;20027;-38
2022/03/07 07:43:42;;;;;;;8.07;6.53;;;2.40;70.80;;;;;;5092598;28;20020;-38
2022/03/07 07:46:07;;;;;;;8.48;5.43;;;2.40;70.70;;;;;;5074638;28;20495;-39
2022/03/07 07:48:33;;;;;;;9.27;5.82;;;2.50;70.60;;;;;;5074418;28;20023;-38
2022/03/07 07:50:58;;;;;;;6.85;5.72;;;2.60;70.50;;;;;;5092558;28;20016;-38
2022/03/07 07:53:24;;;;;;;7.72;5.43;;;2.70;70.50;;;;;;5092441;28;20024;-37
2022/03/07 07:55:49;;;;;;;8.40;5.38;;;2.70;70.30;;;;;;5092460;28;20541;-37
2022/03/07 07:58:15;;;;;;;7.97;5.72;;;2.80;70.20;;;;;;5095528;28;20096;-38
2022/03/07 08:00:41;;;;;;;7.15;5.05;;;2.90;70.00;;;;;;5096372;28;20480;-39
2022/03/07 08:03:07;;;;;;;6.63;5.60;;;3.00;70.00;;;;;;5096215;28;20028;-38
2022/03/07 08:05:33;;;;;;;8.52;5.13;;;3.00;69.80;;;;;;5096510;28;20392;-38
2022/03/07 08:07:59;;;;;;;7.45;5.45;;;3.10;69.70;;;;;;5096129;28;20063;-38
2022/03/07 08:10:25;;;;;;;8.55;5.05;;;3.10;69.50;;;;;;5096234;28;20031;-39
2022/03/07 08:12:50;;;;;;;6.55;4.78;;;3.20;69.50;;;;;;5096253;28;20024;-37
2022/03/07 08:15:16;;;;;;;6.47;4.60;;;3.30;69.40;;;;;;5096257;28;20468;-38
2022/03/07 08:17:46;;;;;;;6.15;4.63;;;3.40;69.30;;;;;;5096070;28;20027;-38
2022/03/07 08:20:13;;;;;;;6.55;4.55;;;3.40;69.10;;;;;;5096039;28;20027;-39
2022/03/07 08:22:39;;;;;;;6.15;4.80;;;3.50;68.90;;;;;;5096015;28;20395;-38
2022/03/07 08:25:05;;;;;;;5.15;4.43;;;3.70;68.90;;;;;;5096220;28;20026;-38
2022/03/07 08:27:32;;;;;;;5.72;4.30;;;3.70;68.60;;;;;;5095999;28;20504;-39
2022/03/07 08:29:58;;;;;;;6.55;4.28;;;3.80;68.50;;;;;;5096047;28;20074;-38
2022/03/07 08:32:24;;;;;;;5.47;4.22;;;3.90;68.30;;;;;;5095976;28;20060;-39
2022/03/07 08:34:49;;;;;;;5.25;4.38;;;3.90;68.10;;;;;;5095754;28;20028;-38
2022/03/07 08:37:15;;;;;;;5.05;3.78;;;4.00;68.00;;;;;;5095484;28;20032;-38
2022/03/07 08:39:40;;;;;;;5.93;4.20;;;4.10;67.90;;;;;;5095349;28;20048;-38
2022/03/07 08:42:06;;;;;;;4.53;3.67;;;4.10;67.70;;;;;;5077050;28;20027;-36
2022/03/07 08:44:32;;;;;;;4.45;3.60;;;4.20;67.60;;;;;;5095406;28;20017;-37
2022/03/07 08:46:57;;;;;;;5.35;3.70;;;4.20;67.40;;;;;;5095152;28;20016;-37
2022/03/07 08:49:23;;;;;;;3.90;3.47;;;4.30;67.60;;;;;;5095241;28;20096;-37
2022/03/07 08:51:48;;;;;;;4.32;3.60;;;4.40;67.40;;;;;;5095192;28;20020;-37
2022/03/07 08:54:14;;;;;;;4.65;3.63;;;4.40;67.00;;;;;;5095037;28;20036;-39
2022/03/07 08:56:40;;;;;;;4.25;3.72;;;4.40;66.80;;;;;;5095327;28;20051;-38
2022/03/07 08:59:06;;;;;;;4.35;3.40;;;4.50;66.60;;;;;;5095080;28;20455;-38
2022/03/07 09:04:53;;;;;;;5.90;3.13;;;4.60;66.30;;;;;;5095036;28;20031;-38
2022/03/07 09:07:19;;;;;;;4.40;2.97;;;4.60;66.10;;;;;;5095078;28;20119;-39
2022/03/07 09:09:44;;;;;;;5.35;2.75;;;4.70;66.00;;;;;;5094108;28;20034;-39
2022/03/07 09:12:10;;;;;;;3.58;2.63;;;4.80;65.90;;;;;;5095321;28;20089;-42
2022/03/07 09:14:36;;;;;;;2.92;2.38;;;4.80;66.00;;;;;;5095100;28;20050;-37
2022/03/07 09:17:03;;;;;;;3.17;2.60;;;4.90;66.50;;;;;;5095069;28;20455;-39
2022/03/07 09:19:29;;;;;;;3.03;2.20;;;5.00;67.20;;;;;;5095218;28;20050;-37
2022/03/07 09:21:55;;;;;;;3.40;2.50;;;5.00;68.80;;;;;;5094952;28;20020;-39
2022/03/07 09:24:20;;;;;;;2.83;2.10;;;5.10;69.10;;;;;;5095224;28;20376;-37
2022/03/07 09:26:46;;;;;;;2.70;2.40;;;5.10;69.70;;;;;;5094892;28;20472;-36
2022/03/07 09:29:13;;;;;;;2.53;1.83;;;5.20;70.60;;;;;;5094555;28;20081;-38
2022/03/07 09:31:39;;;;;;;3.00;2.47;;;5.20;70.90;;;;;;5094439;28;20020;-38
2022/03/07 09:34:05;;;;;;;4.63;2.85;;;5.30;73.20;;;;;;5094616;28;20476;-38
2022/03/07 09:36:31;;;;;;;4.22;3.03;;;5.30;72.20;;;;;;5094777;28;20043;-36
2022/03/07 09:38:56;;;;;;;3.97;3.10;;;5.30;71.50;;;;;;5094368;28;20023;-37
2022/03/07 09:41:22;;;;;;;4.15;3.33;;;5.30;70.90;;;;;;5094455;28;20020;-38
2022/03/07 09:43:48;;;;;;;4.13;3.10;;;5.30;70.20;;;;;;5094046;28;20027;-36
2022/03/07 09:46:14;;;;;;;3.45;2.67;;;5.30;70.40;;;;;;5094201;28;20374;-37
2022/03/07 09:48:42;;;;;;;6.68;3.67;;;5.30;70.00;;;;;;5094317;28;20020;-37
2022/03/07 09:51:07;;;;;;;3.90;2.88;;;5.30;69.50;;;;;;5094071;28;20051;-36
2022/03/07 09:53:33;;;;;;;4.20;2.90;;;5.30;69.80;;;;;;5094100;28;20052;-37
2022/03/07 09:55:58;;;;;;;4.07;2.95;;;5.40;69.80;;;;;;5093907;28;20044;-37
2022/03/07 09:58:24;;;;;;;3.55;2.90;;;5.50;69.20;;;;;;5094072;28;20031;-37
2022/03/07 10:00:50;;;;;;;5.78;2.83;;;5.60;68.50;;;;;;5093962;28;20025;-36
2022/03/07 10:03:18;;;;;;;3.95;3.25;;;5.60;68.00;;;;;;5093954;28;20082;-38
2022/03/07 10:05:48;;;;;;;3.55;3.00;;;5.70;67.50;;;;;;5076163;28;20016;-37
2022/03/07 10:08:24;;;;;;;5.22;3.03;;;5.70;67.10;;;;;;5093729;28;20016;-37
2022/03/07 10:10:52;;;;;;;6.18;3.15;;;5.80;67.30;;;;;;5093999;28;20456;-38
2022/03/07 10:13:20;;;;;;;2.95;2.40;;;5.90;67.00;;;;;;5093804;28;20028;-38
2022/03/07 10:15:59;;;;;;;3.60;2.70;;;6.00;67.70;;;;;;5075501;28;20024;-38
2022/03/07 10:18:25;;;;;;;4.00;2.95;;;6.00;68.40;;;;;;5093737;28;20016;-38
2022/03/07 10:20:54;;;;;;;4.53;2.80;;;6.00;68.20;;;;;;5093430;28;20532;-37
2022/03/07 10:23:21;;;;;;;3.50;2.50;;;6.10;68.00;;;;;;5093328;28;20498;-38
2022/03/07 10:25:48;;;;;;;3.90;2.60;;;6.10;69.60;;;;;;5093638;28;20031;-37
2022/03/07 10:28:14;;;;;;;2.67;2.45;;;6.10;69.30;;;;;;5093561;28;20024;-38
2022/03/07 10:30:40;;;;;;;2.72;2.10;;;6.20;68.80;;;;;;5093926;28;20384;-38
2022/03/07 10:33:08;;;;;;;2.83;2.20;;;6.30;70.10;;;;;;5093482;28;20432;-37
2022/03/07 10:35:42;;;;;;;3.92;1.90;;;6.40;70.60;;;;;;5093239;28;20024;-39
2022/03/07 10:38:10;;;;;;;4.57;2.10;;;6.40;71.00;;;;;;5093300;28;20480;-38
2022/03/07 10:40:39;;;;;;;3.20;2.90;;;6.50;71.30;;;;;;5093080;28;20031;-37
2022/03/07 10:43:05;;;;;;;3.85;2.55;;;6.60;70.40;;;;;;5074839;28;20024;-37
2022/03/07 10:45:42;;;;;;;5.05;2.83;;;6.60;69.00;;;;;;5093124;28;20114;-37
2022/03/07 10:48:08;;;;;;;5.28;2.90;;;6.70;68.50;;;;;;5093168;28;20073;-38
2022/03/07 10:50:34;;;;;;;3.38;2.67;;;6.70;68.00;;;;;;5093013;28;20024;-37
2022/03/07 10:53:05;;;;;;;3.75;3.15;;;6.80;67.70;;;;;;5093336;28;20485;-39
2022/03/07 10:55:32;;;;;;;5.57;3.45;;;6.80;67.10;;;;;;5092849;28;20415;-37
2022/03/07 10:58:06;;;;;;;5.45;3.10;;;6.80;67.50;;;;;;5093084;28;20020;-37
2022/03/07 11:00:31;;;;;;;3.25;2.80;;;6.80;67.60;;;;;;5092886;28;20035;-39
2022/03/07 11:02:57;;;;;;;3.65;2.92;;;6.90;68.30;;;;;;5092893;28;20384;-39
2022/03/07 11:05:23;;;;;;;4.32;3.33;;;6.90;68.30;;;;;;5074609;28;20013;-37
2022/03/07 11:07:51;;;;;;;4.47;2.90;;;7.00;67.90;;;;;;5092807;28;20052;-37
2022/03/07 11:10:17;;;;;;;3.13;2.53;;;6.90;68.10;;;;;;5092859;28;20019;-38
2022/03/07 11:12:44;;;;;;;3.72;2.97;;;6.90;69.70;;;;;;5092802;28;20028;-38
2022/03/07 11:15:13;;;;;;;4.43;3.10;;;7.00;69.70;;;;;;5092624;28;20056;-38
2022/03/07 11:17:43;;;;;;;3.67;2.97;;;7.00;69.40;;;;;;5092646;28;20032;-38
2022/03/07 11:20:15;;;;;;;4.43;3.45;;;7.00;68.90;;;;;;5092933;28;20031;-40
2022/03/07 11:22:41;;;;;;;3.78;3.13;;;7.00;68.10;;;;;;5092665;28;20533;-36
2022/03/07 11:25:08;;;;;;;4.70;3.45;;;7.10;68.60;;;;;;5092941;28;20020;-37
2022/03/07 11:27:36;;;;;;;3.13;2.83;;;7.20;69.30;;;;;;5092901;28;20023;-39
2022/03/07 11:30:17;;;;;;;6.25;3.63;;;7.20;69.50;;;;;;5093024;28;20020;-38
2022/03/07 11:32:44;;;;;;;3.50;2.60;;;7.20;69.40;;;;;;5094902;28;20468;-37
2022/03/07 11:35:11;;;;;;;2.85;2.50;;;7.30;70.40;;;;;;5096970;28;20541;-37
2022/03/07 11:37:36;;;;;;;5.82;3.70;;;7.30;70.50;;;;;;5078833;28;20024;-38
2022/03/07 11:40:21;;;;;;;2.97;2.28;;;7.40;71.70;;;;;;5096708;28;20108;-37
2022/03/07 11:42:48;;;;;;;4.05;2.88;;;7.40;72.90;;;;;;5096956;28;20194;-36
2022/03/07 11:45:24;;;;;;;4.25;3.05;;;7.40;73.00;;;;;;5096775;28;20050;-37
2022/03/07 11:47:50;;;;;;;5.72;3.78;;;7.40;72.20;;;;;;5096576;28;20085;-37
2022/03/07 11:50:20;;;;;;;9.10;3.90;;;7.60;72.00;;;;;;5096714;28;20016;-40
2022/03/07 11:52:45;;;;;;;4.32;3.17;;;7.70;70.00;;;;;;5078201;28;20020;-47
2022/03/07 11:55:16;;;;;;;4.13;3.13;;;7.70;70.90;;;;;;5096311;28;20044;-37
2022/03/07 11:57:47;;;;;;;4.13;3.08;;;7.80;71.80;;;;;;5096584;28;20042;-37
2022/03/07 12:00:22;;;;;;;5.97;3.13;;;7.90;72.00;;;;;;5096323;28;20543;-38
2022/03/07 12:02:53;;;;;;;5.90;4.00;;;7.90;71.40;;;;;;5096371;28;20054;-37
2022/03/07 12:05:31;;;;;;;9.85;5.25;;;7.80;69.80;;;;;;5096265;28;20009;-37
2022/03/07 12:08:13;;;;;;;6.57;4.60;;;7.70;68.80;;;;;;5096443;28;20024;-37
2022/03/07 12:10:52;;;;;;;7.03;4.35;;;7.60;69.20;;;;;;5096220;28;20100;-38
2022/03/07 12:13:18;;;;;;;5.13;3.58;;;7.70;69.60;;;;;;5096550;28;20024;-39
2022/03/07 12:15:49;;;;;;;5.90;4.20;;;7.80;70.20;;;;;;5078146;28;20020;-39
2022/03/07 12:18:16;;;;;;;6.25;3.95;;;7.90;69.40;;;;;;5096426;28;20444;-38
2022/03/07 12:20:53;;;;;;;6.07;4.40;;;8.10;68.90;;;;;;5096490;28;20085;-39
2022/03/07 12:23:21;;;;;;;4.38;3.42;;;8.20;68.70;;;;;;5096145;28;20028;-37
2022/03/07 12:25:46;;;;;;;4.30;3.58;;;8.20;68.50;;;;;;5077761;28;20054;-39
2022/03/07 12:28:13;;;;;;;4.70;3.88;;;8.20;70.60;;;;;;5095864;28;20522;-39
2022/03/07 12:30:39;;;;;;;5.63;3.17;;;8.20;69.80;;;;;;5095854;28;20020;-39
2022/03/07 12:33:13;;;;;;;3.35;2.30;;;8.20;70.40;;;;;;5095925;28;20459;-40
2022/03/07 12:35:38;;;;;;;4.32;3.70;;;8.40;70.50;;;;;;5077478;28;20043;-39
2022/03/07 12:38:08;;;;;;;4.70;3.17;;;8.40;70.50;;;;;;5095854;28;20020;-37
2022/03/07 12:40:36;;;;;;;6.20;4.30;;;8.40;69.70;;;;;;5095642;28;20032;-39
2022/03/07 12:43:02;;;;;;;5.15;3.85;;;8.40;67.90;;;;;;5094907;28;20057;-39
2022/03/07 12:45:28;;;;;;;6.47;3.38;;;8.50;67.80;;;;;;5094834;28;20510;-39
2022/03/07 12:47:54;;;;;;;4.68;3.38;;;8.60;67.50;;;;;;5095479;28;20047;-41
2022/03/07 12:50:29;;;;;;;2.90;2.60;;;8.70;66.70;;;;;;5095496;28;20012;-39
2022/03/07 12:52:55;;;;;;;3.50;2.97;;;8.70;67.80;;;;;;5095713;28;20168;-38
2022/03/07 12:55:21;;;;;;;3.28;2.85;;;8.70;67.60;;;;;;5095493;28;20079;-38
2022/03/07 12:57:53;;;;;;;4.80;3.35;;;8.80;68.00;;;;;;5095410;28;20478;-36
2022/03/07 13:00:19;;;;;;;5.80;3.03;;;8.90;67.60;;;;;;5095355;28;20035;-39